createdAt,value
2023-02-23T00:00:47.388Z,100831.63
2023-02-23T00:03:14.608Z,100829.75
2023-02-23T00:05:41.180Z,100835.31
2023-02-23T00:08:07.900Z,100831.00
2023-02-23T00:10:34.398Z,100830.16
2023-02-23T00:13:00.726Z,100830.16
2023-02-23T00:15:27.316Z,100823.38
2023-02-23T00:17:53.617Z,100824.81
2023-02-23T00:20:19.980Z,100818.00
2023-02-23T00:22:46.810Z,100811.84
2023-02-23T00:25:13.912Z,100814.53
2023-02-23T00:27:40.446Z,100815.34
2023-02-23T00:30:06.800Z,100814.75
2023-02-23T00:32:33.590Z,100811.84
2023-02-23T00:35:00.449Z,100811.00
2023-02-23T00:37:27.506Z,100811.84
2023-02-23T00:39:53.941Z,100807.53
2023-02-23T00:42:20.705Z,100800.72
2023-02-23T00:44:47.068Z,100806.06
2023-02-23T00:47:13.621Z,100811.44
2023-02-23T00:49:39.922Z,100804.22
2023-02-23T00:52:06.324Z,100804.44
2023-02-23T00:54:32.918Z,100806.06
2023-02-23T00:56:59.699Z,100811.44
2023-02-23T00:59:26.335Z,100810.84
2023-02-23T01:01:52.946Z,100805.50
2023-02-23T01:04:19.292Z,100813.53
2023-02-23T01:06:45.674Z,100818.06
2023-02-23T01:09:12.309Z,100811.06
2023-02-23T01:11:38.716Z,100808.38
2023-02-23T01:14:05.125Z,100805.50
2023-02-23T01:16:31.875Z,100802.19
2023-02-23T01:18:58.458Z,100800.56
2023-02-23T01:21:24.742Z,100798.69
2023-02-23T01:23:51.225Z,100799.75
2023-02-23T01:26:18.115Z,100806.75
2023-02-23T01:28:44.480Z,100791.69
2023-02-23T01:31:10.934Z,100800.78
2023-02-23T01:33:37.359Z,100801.59
2023-02-23T01:36:03.707Z,100799.97
2023-02-23T01:38:30.182Z,100797.50
2023-02-23T01:40:57.136Z,100790.28
2023-02-23T01:43:23.825Z,100784.91
2023-02-23T01:45:50.378Z,100793.75
2023-02-23T01:48:16.707Z,100787.59
2023-02-23T01:50:43.080Z,100781.41
2023-02-23T01:53:09.409Z,100784.09
2023-02-23T01:55:35.771Z,100782.44
2023-02-23T01:58:02.075Z,100773.56
2023-02-23T02:00:28.570Z,100780.78
2023-02-23T02:02:55.517Z,100776.47
2023-02-23T02:05:21.935Z,100771.09
2023-02-23T02:07:48.587Z,100768.41
2023-02-23T02:10:15.061Z,100765.94
2023-02-23T02:12:41.564Z,100768.41
2023-02-23T02:15:09.008Z,100764.94
2023-02-23T02:17:35.610Z,100765.72
2023-02-23T02:20:01.939Z,100757.91
2023-02-23T02:22:28.331Z,100751.53
2023-02-23T02:24:54.640Z,100756.47
2023-02-23T02:27:21.351Z,100746.59
2023-02-23T02:29:47.725Z,100750.09
2023-02-23T02:32:14.791Z,100749.47
2023-02-23T02:34:41.242Z,100759.16
2023-02-23T02:37:07.662Z,100755.69
2023-02-23T02:39:34.066Z,100758.38
2023-02-23T02:42:00.364Z,100748.66
2023-02-23T02:44:27.299Z,100750.31
2023-02-23T02:46:53.959Z,100748.44
2023-02-23T02:49:20.350Z,100740.59
2023-02-23T02:51:46.930Z,100739.81
2023-02-23T02:54:13.300Z,100739.19
2023-02-23T02:56:39.671Z,100736.50
2023-02-23T02:59:06.044Z,100742.69
2023-02-23T03:01:32.428Z,100731.13
2023-02-23T03:03:58.748Z,100734.88
2023-02-23T03:06:25.078Z,100730.34
2023-02-23T03:08:51.582Z,100730.34
2023-02-23T03:11:18.334Z,100726.81
2023-02-23T03:13:45.083Z,100723.91
2023-02-23T03:16:11.482Z,100725.97
2023-02-23T03:18:37.953Z,100723.31
2023-02-23T03:21:04.812Z,100727.03
2023-02-23T03:23:31.914Z,100718.97
2023-02-23T03:25:58.539Z,100720.03
2023-02-23T03:28:26.161Z,100715.50
2023-02-23T03:30:53.178Z,100714.66
2023-02-23T03:33:19.575Z,100718.41
2023-02-23T03:35:46.146Z,100716.31
2023-02-23T03:38:12.622Z,100718.41
2023-02-23T03:40:39.221Z,100714.88
2023-02-23T03:43:05.819Z,100713.25
2023-02-23T03:45:32.295Z,100713.25
2023-02-23T03:47:58.879Z,100713.25
2023-02-23T03:50:25.419Z,100709.72
2023-02-23T03:52:51.765Z,100699.84
2023-02-23T03:55:18.261Z,100704.38
2023-02-23T03:57:44.746Z,100695.75
2023-02-23T04:00:11.073Z,100702.75
2023-02-23T04:02:37.710Z,100693.84
2023-02-23T04:05:04.142Z,100698.63
2023-02-23T04:07:31.152Z,100701.09
2023-02-23T04:09:57.498Z,100694.09
2023-02-23T04:12:23.925Z,100697.59
2023-02-23T04:14:50.302Z,100694.09
2023-02-23T04:17:16.671Z,100694.09
2023-02-23T04:19:43.174Z,100701.31
2023-02-23T04:22:09.519Z,100692.44
2023-02-23T04:24:36.286Z,100697.00
2023-02-23T04:27:02.655Z,100685.66
2023-02-23T04:29:29.049Z,100693.50
2023-02-23T04:31:55.467Z,100698.63
2023-02-23T04:34:21.857Z,100692.66
2023-02-23T04:36:48.917Z,100686.72
2023-02-23T04:39:15.427Z,100686.50
2023-02-23T04:41:41.789Z,100681.34
2023-02-23T04:44:08.196Z,100685.06
2023-02-23T04:46:34.556Z,100685.88
2023-02-23T04:49:01.127Z,100685.88
2023-02-23T04:51:27.672Z,100681.34
2023-02-23T04:53:54.287Z,100682.19
2023-02-23T04:56:20.807Z,100682.41
2023-02-23T04:58:47.586Z,100677.25
2023-02-23T05:01:14.001Z,100672.94
2023-02-23T05:03:40.571Z,100668.97
2023-02-23T05:06:07.232Z,100675.41
2023-02-23T05:08:33.603Z,100664.06
2023-02-23T05:11:00.334Z,100668.59
2023-02-23T05:13:27.102Z,100667.78
2023-02-23T05:15:53.513Z,100657.84
2023-02-23T05:18:20.146Z,100651.91
2023-02-23T05:20:47.002Z,100658.91
2023-02-23T05:23:13.816Z,100664.28
2023-02-23T05:25:40.668Z,100659.75
2023-02-23T05:28:07.262Z,100653.53
2023-02-23T05:30:33.814Z,100659.94
2023-02-23T05:33:00.194Z,100656.44
2023-02-23T05:35:26.975Z,100655.84
2023-02-23T05:37:53.744Z,100661.81
2023-02-23T05:40:20.391Z,100664.72
2023-02-23T05:42:46.817Z,100674.41
2023-02-23T05:45:13.467Z,100672.53
2023-02-23T05:47:39.854Z,100672.53
2023-02-23T05:50:06.520Z,100678.13
2023-02-23T05:52:33.504Z,100671.09
2023-02-23T05:55:00.176Z,100677.31
2023-02-23T05:57:27.076Z,100672.16
2023-02-23T05:59:53.539Z,100684.53
2023-02-23T06:02:19.920Z,100680.00
2023-02-23T06:04:46.788Z,100681.84
2023-02-23T06:07:13.124Z,100690.94
2023-02-23T06:09:39.699Z,100681.25
2023-02-23T06:12:06.274Z,100680.63
2023-02-23T06:14:32.566Z,100684.78
2023-02-23T06:16:59.165Z,100691.69
2023-02-23T06:19:25.610Z,100681.78
2023-02-23T06:21:51.924Z,100685.41
2023-02-23T06:24:18.275Z,100694.97
2023-02-23T06:26:44.692Z,100691.81
2023-02-23T06:29:10.977Z,100694.56
2023-02-23T06:31:37.403Z,100684.03
2023-02-23T06:34:03.826Z,100686.09
2023-02-23T06:36:30.582Z,100683.66
2023-02-23T06:38:57.004Z,100686.88
2023-02-23T06:41:23.372Z,100690.41
2023-02-23T06:43:49.865Z,100688.53
2023-02-23T06:46:16.280Z,100688.31
2023-02-23T06:48:42.647Z,100691.75
2023-02-23T06:51:09.040Z,100689.72
2023-02-23T06:53:35.409Z,100680.63
2023-02-23T06:56:01.837Z,100680.63
2023-02-23T06:58:28.182Z,100690.78
2023-02-23T07:00:54.922Z,100687.47
2023-02-23T07:03:21.236Z,100695.81
2023-02-23T07:05:47.970Z,100696.03
2023-02-23T07:08:14.396Z,100695.50
2023-02-23T07:10:40.717Z,100695.19
2023-02-23T07:13:07.392Z,100688.19
2023-02-23T07:15:33.827Z,100693.13
2023-02-23T07:18:00.147Z,100693.41
2023-02-23T07:20:26.749Z,100696.09
2023-02-23T07:22:53.664Z,100689.72
2023-02-23T07:25:20.046Z,100696.91
2023-02-23T07:27:46.646Z,100697.34
2023-02-23T07:30:13.015Z,100690.94
2023-02-23T07:32:39.467Z,100693.44
2023-02-23T07:35:05.835Z,100692.63
2023-02-23T07:37:32.465Z,100700.06
2023-02-23T07:40:01.024Z,100699.88
2023-02-23T07:42:27.865Z,100690.16
2023-02-23T07:44:54.256Z,100691.19
2023-02-23T07:47:20.708Z,100685.19
2023-02-23T07:49:47.054Z,100681.47
2023-02-23T07:52:13.782Z,100682.50
2023-02-23T07:54:40.157Z,100679.84
2023-02-23T07:57:06.898Z,100687.25
2023-02-23T07:59:33.755Z,100685.41
2023-02-23T08:02:00.163Z,100681.91
2023-02-23T08:04:26.670Z,100686.47
2023-02-23T08:06:53.250Z,100686.41
2023-02-23T08:09:19.709Z,100687.47
2023-02-23T08:11:46.449Z,100693.66
2023-02-23T08:14:12.798Z,100682.09
2023-02-23T08:16:39.262Z,100689.13
2023-02-23T08:19:05.734Z,100690.56
2023-02-23T08:21:32.510Z,100680.63
2023-02-23T08:23:58.941Z,100685.56
2023-02-23T08:26:25.425Z,100680.00
2023-02-23T08:28:51.882Z,100681.63
2023-02-23T08:31:18.674Z,100672.53
2023-02-23T08:33:45.207Z,100676.63
2023-02-23T08:36:11.559Z,100673.94
2023-02-23T08:38:38.325Z,100671.06
2023-02-23T08:41:04.843Z,100677.25
2023-02-23T08:43:31.536Z,100678.88
2023-02-23T08:45:58.168Z,100668.16
2023-02-23T08:48:24.733Z,100669.78
2023-02-23T08:50:51.032Z,100668.16
2023-02-23T08:53:17.522Z,100663.41
2023-02-23T08:55:43.888Z,100671.44
2023-02-23T08:58:10.270Z,100678.66
2023-02-23T09:00:36.830Z,100676.81
2023-02-23T09:03:03.690Z,100677.84
2023-02-23T09:05:30.135Z,100678.66
2023-02-23T09:07:57.015Z,100670.63
2023-02-23T09:10:23.575Z,100677.84
2023-02-23T09:12:50.475Z,100679.50
2023-02-23T09:15:16.850Z,100675.97
2023-02-23T09:17:43.264Z,100674.13
2023-02-23T09:20:09.562Z,100672.47
2023-02-23T09:22:37.016Z,100682.41
2023-02-23T09:25:03.510Z,100675.16
2023-02-23T09:27:29.852Z,100671.66
2023-02-23T09:29:56.271Z,100674.34
2023-02-23T09:32:23.144Z,100671.66
2023-02-23T09:34:49.611Z,100672.72
2023-02-23T09:37:16.009Z,100665.69
2023-02-23T09:39:42.757Z,100670.25
2023-02-23T09:42:09.572Z,100672.09
2023-02-23T09:44:35.862Z,100669.41
2023-02-23T09:47:02.169Z,100666.72
2023-02-23T09:49:29.020Z,100666.72
2023-02-23T09:51:55.424Z,100667.56
2023-02-23T09:54:21.904Z,100669.63
2023-02-23T09:56:48.519Z,100663.22
2023-02-23T09:59:14.909Z,100663.22
2023-02-23T10:01:41.778Z,100668.59
2023-02-23T10:04:08.214Z,100661.59
2023-02-23T10:06:34.582Z,100660.78
2023-02-23T10:09:01.406Z,100661.59
2023-02-23T10:11:27.835Z,100656.22
2023-02-23T10:13:54.211Z,100659.94
2023-02-23T10:16:20.763Z,100658.09
2023-02-23T10:18:47.510Z,100659.94
2023-02-23T10:21:13.864Z,100660.78
2023-02-23T10:23:40.440Z,100659.94
2023-02-23T10:26:06.745Z,100665.31
2023-02-23T10:28:33.394Z,100659.13
2023-02-23T10:30:59.847Z,100658.31
2023-02-23T10:33:26.787Z,100667.16
2023-02-23T10:36:07.200Z,100666.16
2023-02-23T10:38:39.115Z,100661.59
2023-02-23T10:41:05.517Z,100662.63
2023-02-23T10:43:32.063Z,100659.94
2023-02-23T10:45:58.503Z,100659.13
2023-02-23T10:48:25.554Z,100665.31
2023-02-23T10:50:52.154Z,100663.47
2023-02-23T10:53:18.576Z,100658.91
2023-02-23T10:55:45.254Z,100654.59
2023-02-23T10:58:11.669Z,100653.75
2023-02-23T11:00:37.988Z,100649.22
2023-02-23T11:03:04.371Z,100641.41
2023-02-23T11:05:30.682Z,100627.78
2023-02-23T11:07:57.745Z,100631.28
2023-02-23T11:10:24.132Z,100625.94
2023-02-23T11:12:50.771Z,100621.59
2023-02-23T11:15:17.181Z,100625.09
2023-02-23T11:17:43.743Z,100629.41
2023-02-23T11:20:10.560Z,100625.09
2023-02-23T11:22:36.978Z,100626.72
2023-02-23T11:25:03.675Z,100623.25
2023-02-23T11:27:30.171Z,100626.72
2023-02-23T11:29:56.606Z,100622.19
2023-02-23T11:32:23.372Z,100625.69
2023-02-23T11:34:50.146Z,100616.84
2023-02-23T11:37:16.870Z,100612.28
2023-02-23T11:39:43.402Z,100623.00
2023-02-23T11:42:09.911Z,100608.78
2023-02-23T11:44:36.444Z,100608.78
2023-02-23T11:47:02.826Z,100605.06
2023-02-23T11:49:29.593Z,100599.91
2023-02-23T11:51:56.122Z,100598.88
2023-02-23T11:54:22.417Z,100598.88
2023-02-23T11:56:49.189Z,100599.69
2023-02-23T11:59:15.527Z,100594.34
2023-02-23T12:01:42.168Z,100601.31
2023-02-23T12:04:08.671Z,100594.13
2023-02-23T12:06:35.128Z,100595.97
2023-02-23T12:09:01.506Z,100589.81
2023-02-23T12:11:27.883Z,100589.81
2023-02-23T12:13:54.221Z,100597.84
2023-02-23T12:16:21.036Z,100582.78
2023-02-23T12:18:47.739Z,100585.47
2023-02-23T12:21:14.015Z,100585.25
2023-02-23T12:23:40.344Z,100582.78
2023-02-23T12:26:06.786Z,100582.56
2023-02-23T12:28:33.367Z,100582.78
2023-02-23T12:30:59.743Z,100580.94
2023-02-23T12:33:26.068Z,100574.72
2023-02-23T12:35:52.640Z,100574.97
2023-02-23T12:38:19.438Z,100573.94
2023-02-23T12:40:45.824Z,100569.63
2023-02-23T12:43:12.726Z,100567.72
2023-02-23T12:45:39.479Z,100562.38
2023-02-23T12:48:05.979Z,100567.38
2023-02-23T12:50:32.374Z,100564.69
2023-02-23T12:52:59.209Z,100571.91
2023-02-23T12:55:25.554Z,100584.28
2023-02-23T12:57:52.146Z,100580.16
2023-02-23T13:00:19.050Z,100573.56
2023-02-23T13:02:45.584Z,100578.94
2023-02-23T13:05:12.008Z,100576.81
2023-02-23T13:07:38.747Z,100576.19
2023-02-23T13:10:05.161Z,100564.19
2023-02-23T13:12:31.757Z,100568.84
2023-02-23T13:14:58.260Z,100564.09
2023-02-23T13:17:24.570Z,100559.94
2023-02-23T13:19:51.177Z,100558.88
2023-02-23T13:22:17.930Z,100553.06
2023-02-23T13:24:44.401Z,100553.66
2023-02-23T13:27:10.773Z,100547.84
2023-02-23T13:29:37.162Z,100553.00
2023-02-23T13:32:03.818Z,100539.72
2023-02-23T13:34:30.436Z,100541.94
2023-02-23T13:36:57.126Z,100540.22
2023-02-23T13:39:23.618Z,100538.50
2023-02-23T13:41:50.403Z,100538.41
2023-02-23T13:44:16.943Z,100531.75
2023-02-23T13:46:43.192Z,100538.31
2023-02-23T13:49:09.587Z,100548.97
2023-02-23T13:51:35.941Z,100545.13
2023-02-23T13:54:02.415Z,100542.59
2023-02-23T13:56:29.296Z,100533.66
2023-02-23T13:58:55.659Z,100546.97
2023-02-23T14:01:22.449Z,100540.09
2023-02-23T14:03:49.627Z,100535.69
2023-02-23T14:06:15.968Z,100543.66
2023-02-23T14:08:42.678Z,100534.88
2023-02-23T14:11:09.313Z,100531.84
2023-02-23T14:13:35.692Z,100535.72
2023-02-23T14:16:02.409Z,100543.09
2023-02-23T14:18:28.879Z,100534.94
2023-02-23T14:20:55.651Z,100537.72
2023-02-23T14:23:22.032Z,100541.13
2023-02-23T14:25:48.407Z,100535.88
2023-02-23T14:28:14.717Z,100537.59
2023-02-23T14:30:41.404Z,100530.47
2023-02-23T14:33:21.109Z,100530.59
2023-02-23T14:35:47.853Z,100530.69
2023-02-23T14:38:14.450Z,100528.16
2023-02-23T14:40:40.926Z,100523.94
2023-02-23T14:43:07.254Z,100535.91
2023-02-23T14:45:34.143Z,100529.22
2023-02-23T14:48:00.541Z,100529.56
2023-02-23T14:50:27.001Z,100521.81
2023-02-23T14:52:53.341Z,100523.59
2023-02-23T14:55:20.096Z,100522.53
2023-02-23T14:57:46.505Z,100526.16
2023-02-23T15:00:12.859Z,100525.91
2023-02-23T15:02:53.677Z,100526.25
2023-02-23T15:05:20.449Z,100533.84
2023-02-23T15:07:47.420Z,100527.16
2023-02-23T15:10:13.881Z,100529.63
2023-02-23T15:12:40.710Z,100534.75
2023-02-23T15:15:07.317Z,100536.16
2023-02-23T15:17:33.607Z,100530.53
2023-02-23T15:22:47.096Z,100521.16
2023-02-23T15:25:13.402Z,100521.97
2023-02-23T15:27:39.804Z,100515.53
2023-02-23T15:30:06.146Z,100511.81
2023-02-23T15:32:32.819Z,100520.44
2023-02-23T15:34:59.345Z,100515.91
2023-02-23T15:37:26.608Z,100520.22
2023-02-23T15:39:52.956Z,100513.75
2023-02-23T15:42:19.674Z,100512.69
2023-02-23T15:44:46.173Z,100516.22
2023-02-23T15:47:13.068Z,100516.78
2023-02-23T15:49:39.771Z,100515.16
2023-02-23T15:52:06.251Z,100522.16
2023-02-23T15:54:33.144Z,100508.72
2023-02-23T15:56:59.889Z,100511.41
2023-02-23T15:59:26.322Z,100517.63
2023-02-23T16:01:52.751Z,100513.06
2023-02-23T16:04:19.114Z,100508.47
2023-02-23T16:06:45.724Z,100505.78
2023-02-23T16:09:12.089Z,100503.31
2023-02-23T16:11:39.157Z,100506.84
2023-02-23T16:14:05.787Z,100504.16
2023-02-23T16:16:32.336Z,100499.59
2023-02-23T16:18:58.830Z,100500.41
2023-02-23T16:21:25.397Z,100500.41
2023-02-23T16:23:51.882Z,100493.97
2023-02-23T16:26:18.819Z,100495.84
2023-02-23T16:28:45.461Z,100495.84
2023-02-23T16:31:12.059Z,100501.00
2023-02-23T16:33:38.487Z,100502.84
2023-02-23T16:36:04.888Z,100492.09
2023-02-23T16:38:31.198Z,100496.41
2023-02-23T16:40:57.732Z,100498.31
2023-02-23T16:43:24.162Z,100493.72
2023-02-23T16:45:51.107Z,100499.94
2023-02-23T16:48:17.582Z,100499.09
2023-02-23T16:50:43.952Z,100497.47
2023-02-23T16:53:10.323Z,100504.47
2023-02-23T16:55:36.682Z,100501.00
2023-02-23T16:58:03.480Z,100501.00
2023-02-23T17:00:29.855Z,100508.25
2023-02-23T17:02:56.710Z,100502.06
2023-02-23T17:05:23.479Z,100501.22
2023-02-23T17:07:49.892Z,100505.78
2023-02-23T17:10:16.653Z,100511.16
2023-02-23T17:12:43.062Z,100512.00
2023-02-23T17:15:09.402Z,100506.63
2023-02-23T17:17:35.696Z,100505.00
2023-02-23T17:20:02.028Z,100516.78
2023-02-23T17:22:28.717Z,100508.72
2023-02-23T17:24:55.169Z,100506.84
2023-02-23T17:27:21.510Z,100516.00
2023-02-23T17:29:47.931Z,100516.78
2023-02-23T17:32:14.587Z,100517.84
2023-02-23T17:34:41.096Z,100523.22
2023-02-23T17:37:08.036Z,100512.69
2023-02-23T17:39:34.557Z,100515.41
2023-02-23T17:42:00.925Z,100519.16
2023-02-23T17:44:27.304Z,100513.75
2023-02-23T17:46:53.779Z,100517.53
2023-02-23T17:49:20.126Z,100512.69
2023-02-23T17:51:46.750Z,100512.97
2023-02-23T17:54:13.077Z,100511.31
2023-02-23T17:56:39.423Z,100512.13
2023-02-23T17:59:05.829Z,100514.50
2023-02-23T18:01:32.267Z,100513.44
2023-02-23T18:03:58.741Z,100516.94
2023-02-23T18:06:25.119Z,100515.53
2023-02-23T18:08:51.523Z,100507.47
2023-02-23T18:11:17.936Z,100505.84
2023-02-23T18:13:46.199Z,100505.84
2023-02-23T18:16:14.996Z,100510.16
2023-02-23T18:18:41.501Z,100505.00
2023-02-23T18:21:08.088Z,100506.06
2023-02-23T18:23:34.408Z,100506.06
2023-02-23T18:26:00.754Z,100501.50
2023-02-23T18:28:27.030Z,100502.56
2023-02-23T18:30:54.004Z,100493.91
2023-02-23T18:33:20.665Z,100499.28
2023-02-23T18:35:47.051Z,100493.91
2023-02-23T18:38:13.563Z,100503.63
2023-02-23T18:40:40.109Z,100501.19
2023-02-23T18:43:06.800Z,100496.84
2023-02-23T18:45:33.899Z,100500.59
2023-02-23T18:48:00.541Z,100495.44
2023-02-23T18:50:27.194Z,100500.81
2023-02-23T18:52:53.863Z,100498.13
2023-02-23T18:55:20.460Z,100500.81
2023-02-23T18:57:46.803Z,100490.88
2023-02-23T19:00:13.795Z,100491.13
2023-02-23T19:02:40.504Z,100497.56
2023-02-23T19:05:07.391Z,100497.81
2023-02-23T19:07:33.906Z,100493.47
2023-02-23T19:10:00.238Z,100491.03
2023-02-23T19:12:26.723Z,100489.72
2023-02-23T19:14:53.100Z,100499.66
2023-02-23T19:17:19.399Z,100495.22
2023-02-23T19:19:45.757Z,100479.97
2023-02-23T19:22:12.276Z,100485.56
2023-02-23T19:24:39.158Z,100480.75
2023-02-23T19:27:05.770Z,100483.31
2023-02-23T19:29:32.262Z,100478.84
2023-02-23T19:31:59.216Z,100477.03
2023-02-23T19:34:26.023Z,100479.09
2023-02-23T19:36:52.362Z,100474.16
2023-02-23T19:39:18.776Z,100473.50
2023-02-23T19:41:45.769Z,100474.19
2023-02-23T19:44:12.290Z,100467.56
2023-02-23T19:46:39.130Z,100470.69
2023-02-23T19:49:05.831Z,100479.66
2023-02-23T19:51:32.291Z,100472.44
2023-02-23T19:53:58.681Z,100475.25
2023-02-23T19:56:25.020Z,100482.09
2023-02-23T19:58:51.501Z,100472.44
2023-02-23T20:01:18.299Z,100476.53
2023-02-23T20:03:45.677Z,100476.34
2023-02-23T20:06:12.035Z,100462.94
2023-02-23T20:08:38.554Z,100465.94
2023-02-23T20:11:04.998Z,100463.59
2023-02-23T20:13:31.381Z,100468.81
2023-02-23T20:15:57.672Z,100456.69
2023-02-23T20:18:23.971Z,100458.94
2023-02-23T20:20:50.321Z,100460.31
2023-02-23T20:23:17.249Z,100458.16
2023-02-23T20:25:44.263Z,100465.78
2023-02-23T20:28:11.035Z,100464.69
2023-02-23T20:30:37.531Z,100461.44
2023-02-23T20:33:03.997Z,100457.44
2023-02-23T20:35:30.399Z,100460.94
2023-02-23T20:37:56.977Z,100456.59
2023-02-23T20:40:23.279Z,100450.97
2023-02-23T20:42:49.856Z,100449.09
2023-02-23T20:45:16.738Z,100452.34
2023-02-23T20:47:43.370Z,100447.53
2023-02-23T20:50:09.916Z,100449.16
2023-02-23T20:52:36.265Z,100449.72
2023-02-23T20:55:03.051Z,100458.38
2023-02-23T20:57:29.400Z,100448.97
2023-02-23T20:59:55.748Z,100456.00
2023-02-23T21:02:22.089Z,100444.38
2023-02-23T21:04:48.574Z,100447.84
2023-02-23T21:07:14.967Z,100445.75
2023-02-23T21:09:41.309Z,100444.00
2023-02-23T21:12:07.770Z,100442.06
2023-02-23T21:14:35.489Z,100440.69
2023-02-23T21:17:02.063Z,100435.00
2023-02-23T21:19:28.596Z,100429.03
2023-02-23T21:21:55.352Z,100431.97
2023-02-23T21:24:21.721Z,100428.47
2023-02-23T21:26:48.401Z,100421.41
2023-02-23T21:29:14.825Z,100424.63
2023-02-23T21:31:41.859Z,100417.59
2023-02-23T21:34:08.560Z,100418.41
2023-02-23T21:36:35.812Z,100424.06
2023-02-23T21:39:02.221Z,100424.31
2023-02-23T21:41:29.057Z,100422.69
2023-02-23T21:43:55.607Z,100427.50
2023-02-23T21:46:22.033Z,100423.16
2023-02-23T21:48:48.443Z,100431.25
2023-02-23T21:51:14.867Z,100420.97
2023-02-23T21:53:41.260Z,100418.28
2023-02-23T21:56:07.888Z,100416.91
2023-02-23T21:58:34.838Z,100417.94
2023-02-23T22:01:01.282Z,100415.50
2023-02-23T22:03:27.643Z,100412.25
2023-02-23T22:05:54.001Z,100408.47
2023-02-23T22:08:20.813Z,100411.69
2023-02-23T22:10:47.121Z,100400.31
2023-02-23T22:13:14.524Z,100408.03
2023-02-23T22:15:41.065Z,100406.56
2023-02-23T22:18:07.936Z,100401.94
2023-02-23T22:20:34.384Z,100397.03
2023-02-23T22:23:00.851Z,100390.31
2023-02-23T22:25:27.141Z,100394.31
2023-02-23T22:27:53.443Z,100387.63
2023-02-23T22:30:19.883Z,100400.44
2023-02-23T22:32:46.578Z,100395.88
2023-02-23T22:35:13.041Z,100395.06
2023-02-23T22:37:39.810Z,100386.16
2023-02-23T22:40:06.501Z,100389.66
2023-02-23T22:42:32.795Z,100389.66
2023-02-23T22:44:59.603Z,100381.50
2023-02-23T22:47:26.039Z,100382.81
2023-02-23T22:49:52.446Z,100389.03
2023-02-23T22:52:18.871Z,100377.44
2023-02-23T22:54:45.387Z,100379.06
2023-02-23T22:57:11.701Z,100378.19
2023-02-23T22:59:38.317Z,100371.16
2023-02-23T23:02:04.673Z,100370.84
2023-02-23T23:04:31.277Z,100372.22
2023-02-23T23:06:57.918Z,100367.91
2023-02-23T23:09:24.615Z,100377.84
2023-02-23T23:11:51.379Z,100373.22
2023-02-23T23:14:17.795Z,100372.97
2023-02-23T23:16:44.346Z,100368.63
2023-02-23T23:19:11.764Z,100363.22
2023-02-23T23:21:39.030Z,100361.25
2023-02-23T23:24:05.327Z,100358.34
2023-02-23T23:26:31.782Z,100354.25
2023-02-23T23:28:58.123Z,100360.13
2023-02-23T23:31:25.063Z,100351.44
2023-02-23T23:33:51.532Z,100346.91
2023-02-23T23:36:18.042Z,100350.41
2023-02-23T23:38:44.317Z,100351.13
2023-02-23T23:41:10.613Z,100345.50
2023-02-23T23:43:37.046Z,100350.31
2023-02-23T23:46:03.385Z,100342.50
2023-02-23T23:48:29.715Z,100341.38
2023-02-23T23:50:56.190Z,100346.75
2023-02-23T23:53:22.702Z,100340.84
2023-02-23T23:55:49.053Z,100336.69
2023-02-23T23:58:15.399Z,100344.78
